createdAt,value
2023-04-02T00:01:18.005Z,1.17
2023-04-02T00:04:08.327Z,1.15
2023-04-02T00:06:43.971Z,6.47
2023-04-02T00:09:40.208Z,3.97
2023-04-02T00:12:16.318Z,1.15
2023-04-02T00:14:53.207Z,1.35
2023-04-02T00:17:25.768Z,0.82
2023-04-02T00:20:01.310Z,0.55
2023-04-02T00:22:33.749Z,2.35
2023-04-02T00:25:13.123Z,2.08
2023-04-02T00:27:46.002Z,0.60
2023-04-02T00:30:18.997Z,0.43
2023-04-02T00:32:52.035Z,1.58
2023-04-02T00:35:27.959Z,1.13
2023-04-02T00:38:01.678Z,0.73
2023-04-02T00:40:34.080Z,0.65
2023-04-02T00:43:08.047Z,0.65
2023-04-02T00:45:41.211Z,0.30
2023-04-02T00:48:24.146Z,0.93
2023-04-02T00:50:57.427Z,0.20
2023-04-02T00:53:31.273Z,0.63
2023-04-02T00:56:12.591Z,1.10
2023-04-02T00:58:50.723Z,2.47
2023-04-02T01:01:27.598Z,0.70
2023-04-02T01:04:02.865Z,2.17
2023-04-02T01:06:37.662Z,0.98
2023-04-02T01:09:21.106Z,2.55
2023-04-02T01:12:09.778Z,0.63
2023-04-02T01:14:50.623Z,0.60
2023-04-02T01:17:57.729Z,0.70
2023-04-02T01:20:58.413Z,0.43
2023-04-02T01:23:38.313Z,0.28
2023-04-02T01:26:18.605Z,0.50
2023-04-02T01:29:01.566Z,0.50
2023-04-02T01:31:34.716Z,0.95
2023-04-02T01:34:09.639Z,1.38
2023-04-02T01:36:52.883Z,0.75
2023-04-02T01:39:36.346Z,1.23
2023-04-02T01:42:16.821Z,2.17
2023-04-02T01:44:51.465Z,2.30
2023-04-02T01:47:26.592Z,1.98
2023-04-02T01:50:02.158Z,10.35
2023-04-02T01:52:39.862Z,3.65
2023-04-02T01:55:15.145Z,2.97
2023-04-02T01:57:51.320Z,1.88
2023-04-02T02:00:25.499Z,3.00
2023-04-02T02:03:02.108Z,1.73
2023-04-02T02:05:35.482Z,2.33
2023-04-02T02:08:21.712Z,2.58
2023-04-02T02:10:54.952Z,3.63
2023-04-02T02:13:27.465Z,2.03
2023-04-02T02:16:02.647Z,2.22
2023-04-02T02:18:35.064Z,2.80
2023-04-02T02:21:09.946Z,2.42
2023-04-02T02:23:42.662Z,2.95
2023-04-02T02:26:15.579Z,3.67
2023-04-02T02:28:52.121Z,3.08
2023-04-02T02:31:30.200Z,4.63
2023-04-02T02:34:08.422Z,6.57
2023-04-02T02:36:51.113Z,3.88
2023-04-02T02:39:27.698Z,1.75
2023-04-02T02:42:05.639Z,3.88
2023-04-02T02:44:44.159Z,1.75
2023-04-02T02:47:23.366Z,2.03
2023-04-02T02:49:59.177Z,2.90
2023-04-02T02:52:36.197Z,1.67
2023-04-02T02:55:18.236Z,5.07
2023-04-02T02:58:22.657Z,1.85
2023-04-02T03:01:09.500Z,2.08
2023-04-02T03:03:46.665Z,2.53
2023-04-02T03:06:19.976Z,1.80
2023-04-02T03:09:03.743Z,0.52
2023-04-02T03:11:43.789Z,0.85
2023-04-02T03:14:27.737Z,0.50
2023-04-02T03:17:09.671Z,2.03
2023-04-02T03:19:47.640Z,1.02
2023-04-02T03:22:25.649Z,0.80
2023-04-02T03:25:01.808Z,1.50
2023-04-02T03:27:40.093Z,3.22
2023-04-02T03:30:36.844Z,1.05
2023-04-02T03:33:14.924Z,3.55
2023-04-02T03:35:57.540Z,1.02
2023-04-02T03:38:35.002Z,0.68
2023-04-02T03:41:17.190Z,1.13
2023-04-02T03:43:54.642Z,3.67
2023-04-02T03:46:33.313Z,1.48
2023-04-02T03:49:12.306Z,1.25
2023-04-02T03:51:53.081Z,1.95
2023-04-02T03:54:27.879Z,4.00
2023-04-02T03:57:01.325Z,3.90
2023-04-02T03:59:42.435Z,2.60
2023-04-02T04:02:35.051Z,3.22
2023-04-02T04:05:20.881Z,2.42
2023-04-02T04:07:59.725Z,4.82
2023-04-02T04:10:34.002Z,5.18
2023-04-02T04:13:11.483Z,3.58
2023-04-02T04:15:52.042Z,3.83
2023-04-02T04:18:37.159Z,2.67
2023-04-02T04:21:30.265Z,5.55
2023-04-02T04:24:19.596Z,5.63
2023-04-02T04:26:57.713Z,10.98
2023-04-02T04:29:44.875Z,7.75
2023-04-02T04:32:31.668Z,9.45
2023-04-02T04:35:16.795Z,8.35
2023-04-02T04:37:57.975Z,8.93
2023-04-02T04:40:34.818Z,7.43
2023-04-02T04:43:15.656Z,7.13
2023-04-02T04:45:54.638Z,12.57
2023-04-02T04:48:36.004Z,6.30
2023-04-02T04:51:16.840Z,7.97
2023-04-02T04:56:29.156Z,13.65
2023-04-02T04:59:18.302Z,6.50
2023-04-02T05:01:55.418Z,12.40
2023-04-02T05:04:34.175Z,9.45
2023-04-02T05:07:10.633Z,8.38
2023-04-02T05:09:51.549Z,11.82
2023-04-02T05:12:32.483Z,8.73
2023-04-02T05:15:14.581Z,24.67
2023-04-02T05:17:54.082Z,29.15
2023-04-02T05:20:32.443Z,36.58
2023-04-02T05:23:15.036Z,49.40
2023-04-02T05:26:02.057Z,20.90
2023-04-02T05:28:42.327Z,10.48
2023-04-02T05:31:20.285Z,6.75
2023-04-02T05:33:54.595Z,6.82
2023-04-02T05:36:29.764Z,9.80
2023-04-02T05:39:08.807Z,7.65
2023-04-02T05:41:48.057Z,8.77
2023-04-02T05:44:45.054Z,2.70
2023-04-02T05:47:27.153Z,6.93
2023-04-02T05:50:21.597Z,2.08
2023-04-02T05:52:58.586Z,5.07
2023-04-02T05:55:37.866Z,5.65
2023-04-02T05:58:35.591Z,5.15
2023-04-02T06:01:29.066Z,7.45
2023-04-02T06:04:14.846Z,7.90
2023-04-02T06:06:52.921Z,4.90
2023-04-02T06:09:34.590Z,11.80
2023-04-02T06:12:18.074Z,4.50
2023-04-02T06:14:50.711Z,2.08
2023-04-02T06:17:24.018Z,0.93
2023-04-02T06:19:58.593Z,2.42
2023-04-02T06:22:36.537Z,1.63
2023-04-02T06:25:15.492Z,9.63
2023-04-02T06:27:50.123Z,1.15
2023-04-02T06:30:30.603Z,1.75
2023-04-02T06:33:04.947Z,1.33
2023-04-02T06:35:42.496Z,2.40
2023-04-02T06:38:20.741Z,2.10
2023-04-02T06:40:58.743Z,4.57
2023-04-02T06:44:09.132Z,2.08
2023-04-02T06:46:57.480Z,1.08
2023-04-02T06:49:36.603Z,2.03
2023-04-02T06:52:18.029Z,0.10
2023-04-02T06:54:50.591Z,1.30
2023-04-02T06:57:23.027Z,1.00
2023-04-02T06:59:56.545Z,0.73
2023-04-02T07:02:35.071Z,0.75
2023-04-02T07:05:10.884Z,0.30
2023-04-02T07:07:47.738Z,0.47
2023-04-02T07:10:20.717Z,5.22
2023-04-02T07:12:53.881Z,3.33
2023-04-02T07:15:27.952Z,0.30
2023-04-02T07:18:00.895Z,4.55
2023-04-02T07:20:36.851Z,0.77
2023-04-02T07:23:14.300Z,1.10
2023-04-02T07:25:47.738Z,0.68
2023-04-02T07:28:22.384Z,0.22
2023-04-02T07:30:55.885Z,2.58
2023-04-02T07:33:30.383Z,1.42
2023-04-02T07:36:03.601Z,0.32
2023-04-02T07:38:35.935Z,0.73
2023-04-02T07:41:08.776Z,0.10
2023-04-02T07:43:42.143Z,0.90
2023-04-02T07:46:16.965Z,0.85
2023-04-02T07:48:49.336Z,0.85
2023-04-02T07:51:23.847Z,1.15
2023-04-02T07:53:56.412Z,0.75
2023-04-02T07:56:28.947Z,2.53
2023-04-02T07:59:01.529Z,0.60
2023-04-02T08:01:34.815Z,2.25
2023-04-02T08:04:17.267Z,1.15
2023-04-02T08:06:52.196Z,0.50
2023-04-02T08:09:24.556Z,2.50
2023-04-02T08:11:56.847Z,0.98
2023-04-02T08:14:29.146Z,1.92
2023-04-02T08:17:01.534Z,1.75
2023-04-02T08:19:39.102Z,1.42
2023-04-02T08:22:21.021Z,0.77
2023-04-02T08:24:53.296Z,1.23
2023-04-02T08:27:25.934Z,4.50
2023-04-02T08:29:58.437Z,8.25
2023-04-02T08:32:30.723Z,0.60
2023-04-02T08:35:03.548Z,1.63
2023-04-02T08:37:36.771Z,3.08
2023-04-02T08:40:21.394Z,1.75
2023-04-02T08:43:09.443Z,3.50
2023-04-02T08:45:55.469Z,3.35
2023-04-02T08:48:30.611Z,2.58
2023-04-02T08:51:05.294Z,0.75
2023-04-02T08:53:41.191Z,1.77
2023-04-02T08:56:19.431Z,3.35
2023-04-02T08:58:55.953Z,1.60
2023-04-02T09:01:37.209Z,0.90
2023-04-02T09:04:15.723Z,1.50
2023-04-02T09:06:51.757Z,0.68
2023-04-02T09:09:25.245Z,0.65
2023-04-02T09:12:02.195Z,2.58
2023-04-02T09:14:42.048Z,0.73
2023-04-02T09:17:17.920Z,1.23
2023-04-02T09:19:55.767Z,3.45
2023-04-02T09:22:32.080Z,4.20
2023-04-02T09:25:12.022Z,0.95
2023-04-02T09:27:47.375Z,2.20
2023-04-02T09:30:29.887Z,1.67
2023-04-02T09:33:06.720Z,1.58
2023-04-02T09:35:55.645Z,2.70
2023-04-02T09:38:30.904Z,1.80
2023-04-02T09:41:05.859Z,0.43
2023-04-02T09:43:38.766Z,1.65
2023-04-02T09:46:18.268Z,0.60
2023-04-02T09:48:54.629Z,1.17
2023-04-02T09:51:30.944Z,0.57
2023-04-02T09:54:13.301Z,0.88
2023-04-02T09:57:02.006Z,1.20
2023-04-02T09:59:34.341Z,0.87
2023-04-02T10:02:24.620Z,1.75
2023-04-02T10:05:03.482Z,0.55
2023-04-02T10:07:38.330Z,3.65
2023-04-02T10:10:20.924Z,0.90
2023-04-02T10:12:59.482Z,2.00
2023-04-02T10:15:35.185Z,0.95
2023-04-02T10:18:16.281Z,4.05
2023-04-02T10:20:52.344Z,0.30
2023-04-02T10:23:27.973Z,0.57
2023-04-02T10:26:20.092Z,0.75
2023-04-02T10:29:11.935Z,2.45
2023-04-02T10:31:55.972Z,15.00
2023-04-02T10:34:35.882Z,2.67
2023-04-02T10:37:27.476Z,0.30
2023-04-02T10:40:06.913Z,0.75
2023-04-02T10:42:52.421Z,0.60
2023-04-02T10:45:38.659Z,3.67
2023-04-02T10:48:19.883Z,0.63
2023-04-02T10:51:00.934Z,3.22
2023-04-02T10:53:41.732Z,4.30
2023-04-02T10:56:14.866Z,4.40
2023-04-02T10:58:55.071Z,0.15
2023-04-02T11:01:30.973Z,0.60
2023-04-02T11:04:08.348Z,0.40
2023-04-02T11:06:46.060Z,3.80
2023-04-02T11:09:25.012Z,5.03
2023-04-02T11:12:00.956Z,0.40
2023-04-02T11:14:33.458Z,0.93
2023-04-02T11:17:13.824Z,1.13
2023-04-02T11:19:46.207Z,3.53
2023-04-02T11:22:21.196Z,1.20
2023-04-02T11:24:56.590Z,0.35
2023-04-02T11:27:31.170Z,4.18
2023-04-02T11:30:07.432Z,1.13
2023-04-02T11:32:42.187Z,1.08
2023-04-02T11:35:35.064Z,0.68
2023-04-02T11:38:48.683Z,0.88
2023-04-02T11:42:01.786Z,2.65
2023-04-02T11:44:34.173Z,0.38
2023-04-02T11:47:15.784Z,0.43
2023-04-02T11:50:05.278Z,1.95
2023-04-02T11:52:51.871Z,0.80
2023-04-02T11:55:27.336Z,0.93
2023-04-02T11:58:30.185Z,0.70
2023-04-02T12:01:35.028Z,1.55
2023-04-02T12:04:35.988Z,3.05
2023-04-02T12:07:25.938Z,0.88
2023-04-02T12:10:01.294Z,0.30
2023-04-02T12:12:37.475Z,1.27
2023-04-02T12:15:32.430Z,0.57
2023-04-02T12:18:12.297Z,0.38
2023-04-02T12:20:50.127Z,3.83
2023-04-02T12:23:28.516Z,0.22
2023-04-02T12:26:05.724Z,1.05
2023-04-02T12:28:38.247Z,0.32
2023-04-02T12:31:14.285Z,0.80
2023-04-02T12:33:51.165Z,1.67
2023-04-02T12:36:23.615Z,1.52
2023-04-02T12:38:57.952Z,0.10
2023-04-02T12:41:32.534Z,0.43
2023-04-02T12:44:10.840Z,2.47
2023-04-02T12:46:44.532Z,0.20
2023-04-02T12:49:28.000Z,0.40
2023-04-02T12:52:02.952Z,0.30
2023-04-02T12:54:43.715Z,1.88
2023-04-02T12:57:37.828Z,0.25
2023-04-02T13:00:33.477Z,0.15
2023-04-02T13:03:17.829Z,2.03
2023-04-02T13:05:53.921Z,0.10
2023-04-02T13:08:29.410Z,7.10
2023-04-02T13:11:04.486Z,0.47
2023-04-02T13:13:38.620Z,0.30
2023-04-02T13:16:27.126Z,0.10
2023-04-02T13:19:12.242Z,0.20
2023-04-02T13:21:45.335Z,0.25
2023-04-02T13:24:18.480Z,0.47
2023-04-02T13:26:54.481Z,0.93
2023-04-02T13:29:28.867Z,1.27
2023-04-02T13:32:03.298Z,0.20
2023-04-02T13:34:35.548Z,0.70
2023-04-02T13:37:10.703Z,0.45
2023-04-02T13:39:43.078Z,0.68
2023-04-02T13:42:17.695Z,0.35
2023-04-02T13:44:50.505Z,0.65
2023-04-02T13:47:22.836Z,1.45
2023-04-02T13:49:55.133Z,0.70
2023-04-02T13:52:28.100Z,0.47
2023-04-02T13:55:00.918Z,0.65
2023-04-02T13:57:34.176Z,1.33
2023-04-02T14:00:07.850Z,0.40
2023-04-02T14:02:44.253Z,0.55
2023-04-02T14:05:31.738Z,0.30
2023-04-02T14:08:08.913Z,0.47
2023-04-02T14:10:57.358Z,0.80
2023-04-02T14:13:48.551Z,0.63
2023-04-02T14:16:41.710Z,0.70
2023-04-02T14:19:28.242Z,0.20
2023-04-02T14:22:11.913Z,0.20
2023-04-02T14:24:54.375Z,1.05
2023-04-02T14:27:40.503Z,0.32
2023-04-02T14:30:21.749Z,2.38
2023-04-02T14:33:00.941Z,1.90
2023-04-02T14:35:36.746Z,0.30
2023-04-02T14:38:17.821Z,0.52
2023-04-02T14:40:54.335Z,0.60
2023-04-02T14:43:32.314Z,0.35
2023-04-02T14:46:07.006Z,1.42
2023-04-02T14:48:46.874Z,1.60
2023-04-02T14:51:26.720Z,1.00
2023-04-02T14:54:06.824Z,0.32
2023-04-02T14:56:45.165Z,0.45
2023-04-02T14:59:27.486Z,0.85
2023-04-02T15:02:04.188Z,1.27
2023-04-02T15:04:43.016Z,1.20
2023-04-02T15:07:22.010Z,2.50
2023-04-02T15:10:10.893Z,0.43
2023-04-02T15:12:46.242Z,3.25
2023-04-02T15:15:39.036Z,1.77
2023-04-02T15:18:15.818Z,1.60
2023-04-02T15:21:05.252Z,0.95
2023-04-02T15:23:50.319Z,1.85
2023-04-02T15:26:28.723Z,1.92
2023-04-02T15:29:15.887Z,6.32
2023-04-02T15:32:01.682Z,5.75
2023-04-02T15:34:44.613Z,0.90
2023-04-02T15:37:23.263Z,0.50
2023-04-02T15:40:22.598Z,0.30
2023-04-02T15:43:04.375Z,1.10
2023-04-02T15:45:48.916Z,0.95
2023-04-02T15:48:44.731Z,1.45
2023-04-02T15:51:33.592Z,0.80
2023-04-02T15:54:22.422Z,2.50
2023-04-02T15:57:05.247Z,1.07
2023-04-02T15:59:54.883Z,1.30
2023-04-02T16:02:53.454Z,4.10
2023-04-02T16:05:36.174Z,0.63
2023-04-02T16:08:53.651Z,1.05
2023-04-02T16:11:26.642Z,0.77
2023-04-02T16:14:12.966Z,0.30
2023-04-02T16:16:47.642Z,3.30
2023-04-02T16:19:28.511Z,3.03
2023-04-02T16:22:05.498Z,0.50
2023-04-02T16:24:44.624Z,2.15
2023-04-02T16:27:25.916Z,1.70
2023-04-02T16:30:22.054Z,2.17
2023-04-02T16:33:09.975Z,1.05
2023-04-02T16:35:50.856Z,1.88
2023-04-02T16:38:36.568Z,1.75
2023-04-02T16:41:18.846Z,3.03
2023-04-02T16:44:02.741Z,2.55
2023-04-02T16:46:58.118Z,3.13
2023-04-02T16:49:40.106Z,0.77
2023-04-02T16:52:28.774Z,1.93
2023-04-02T16:55:22.666Z,0.65
2023-04-02T16:58:06.908Z,2.95
2023-04-02T17:00:48.267Z,2.42
2023-04-02T17:03:47.339Z,2.13
2023-04-02T17:06:35.112Z,43.78
2023-04-02T17:09:15.791Z,13.88
2023-04-02T17:11:50.903Z,4.75
2023-04-02T17:14:34.434Z,6.10
2023-04-02T17:17:10.883Z,6.15
2023-04-02T17:19:48.501Z,1.10
2023-04-02T17:22:31.322Z,8.73
2023-04-02T17:25:07.121Z,9.85
2023-04-02T17:27:43.046Z,5.45
2023-04-02T17:30:18.944Z,6.82
2023-04-02T17:32:51.318Z,4.43
2023-04-02T17:35:32.928Z,3.35
2023-04-02T17:38:13.217Z,3.10
2023-04-02T17:40:53.113Z,3.47
2023-04-02T17:43:36.710Z,6.63
2023-04-02T17:46:20.859Z,8.23
2023-04-02T17:48:57.324Z,4.45
2023-04-02T17:51:39.182Z,4.05
2023-04-02T17:54:24.694Z,4.43
2023-04-02T17:57:16.263Z,7.35
2023-04-02T18:00:21.091Z,5.65
2023-04-02T18:03:15.857Z,6.13
2023-04-02T18:06:13.908Z,2.70
2023-04-02T18:11:36.635Z,6.25
2023-04-02T18:14:27.445Z,6.80
2023-04-02T18:19:56.344Z,9.38
2023-04-02T18:22:37.727Z,7.05
2023-04-02T18:25:25.334Z,6.57
2023-04-02T18:28:15.644Z,8.65
2023-04-02T18:31:01.394Z,7.28
2023-04-02T18:33:56.163Z,14.77
2023-04-02T18:36:39.902Z,10.13
2023-04-02T18:39:20.119Z,11.85
2023-04-02T18:42:02.689Z,14.18
2023-04-02T18:44:48.824Z,12.45
2023-04-02T18:47:30.076Z,15.07
2023-04-02T18:50:15.085Z,13.05
2023-04-02T18:53:12.628Z,11.27
2023-04-02T18:55:48.095Z,9.32
2023-04-02T18:58:26.681Z,6.65
2023-04-02T19:01:01.013Z,9.70
2023-04-02T19:03:40.752Z,10.77
2023-04-02T19:06:26.537Z,10.73
2023-04-02T19:09:02.529Z,10.90
2023-04-02T19:11:35.354Z,8.23
2023-04-02T19:14:12.268Z,7.20
2023-04-02T19:16:59.743Z,9.82
2023-04-02T19:19:37.563Z,8.00
2023-04-02T19:22:19.725Z,7.68
2023-04-02T19:25:29.606Z,8.70
2023-04-02T19:28:11.722Z,5.97
2023-04-02T19:31:03.189Z,15.18
2023-04-02T19:33:44.508Z,20.48
2023-04-02T19:36:41.638Z,23.85
2023-04-02T19:39:46.356Z,14.90
2023-04-02T19:42:45.809Z,16.10
2023-04-02T19:45:26.289Z,19.30
2023-04-02T19:48:01.392Z,8.25
2023-04-02T19:50:56.664Z,6.20
2023-04-02T19:53:29.002Z,6.32
2023-04-02T19:56:01.508Z,3.53
2023-04-02T19:58:35.871Z,2.10
2023-04-02T20:01:08.223Z,2.78
2023-04-02T20:03:43.507Z,5.47
2023-04-02T20:06:16.385Z,2.92
2023-04-02T20:08:48.754Z,3.38
2023-04-02T20:11:22.022Z,3.03
2023-04-02T20:13:55.068Z,12.70
2023-04-02T20:16:27.517Z,17.27
2023-04-02T20:19:00.122Z,11.73
2023-04-02T20:21:37.341Z,8.45
2023-04-02T20:24:09.773Z,5.80
2023-04-02T20:26:42.090Z,4.32
2023-04-02T20:29:15.144Z,6.97
2023-04-02T20:31:47.481Z,5.68
2023-04-02T20:34:20.136Z,4.85
2023-04-02T20:36:55.344Z,9.43
2023-04-02T20:39:46.022Z,6.22
2023-04-02T20:42:37.137Z,3.88
2023-04-02T20:45:10.863Z,7.47
2023-04-02T20:47:43.159Z,4.85
2023-04-02T20:50:15.904Z,2.03
2023-04-02T20:52:48.526Z,2.47
2023-04-02T20:55:21.509Z,5.30
2023-04-02T20:57:53.863Z,5.25
2023-04-02T21:00:26.836Z,6.15
2023-04-02T21:02:59.344Z,9.13
2023-04-02T21:05:31.718Z,10.85
2023-04-02T21:08:04.506Z,12.10
2023-04-02T21:10:36.963Z,4.82
2023-04-02T21:13:09.520Z,6.32
2023-04-02T21:15:45.515Z,4.38
2023-04-02T21:18:17.806Z,7.13
2023-04-02T21:20:56.665Z,5.70
2023-04-02T21:23:29.261Z,19.42
2023-04-02T21:26:05.391Z,12.77
2023-04-02T21:28:37.757Z,15.68
2023-04-02T21:31:12.397Z,15.70
2023-04-02T21:33:46.751Z,15.88
2023-04-02T21:36:21.329Z,16.42
2023-04-02T21:38:56.350Z,10.25
2023-04-02T21:41:30.681Z,10.15
2023-04-02T21:44:04.994Z,10.55
2023-04-02T21:46:39.532Z,12.75
2023-04-02T21:49:13.160Z,8.32
2023-04-02T21:51:46.412Z,10.73
2023-04-02T21:54:18.942Z,9.52
2023-04-02T21:56:51.854Z,7.25
2023-04-02T21:59:24.294Z,16.38
2023-04-02T22:01:57.273Z,23.05
2023-04-02T22:04:29.927Z,47.30
2023-04-02T22:07:02.302Z,24.73
2023-04-02T22:09:34.901Z,15.38
2023-04-02T22:12:07.441Z,15.88
2023-04-02T22:14:39.725Z,12.38
2023-04-02T22:17:12.794Z,14.23
2023-04-02T22:19:45.083Z,13.63
2023-04-02T22:22:17.358Z,17.33
2023-04-02T22:24:49.630Z,17.55
2023-04-02T22:27:21.964Z,9.65
2023-04-02T22:29:54.585Z,8.50
2023-04-02T22:32:27.590Z,6.60
2023-04-02T22:34:59.868Z,6.93
2023-04-02T22:37:33.216Z,6.03
2023-04-02T22:40:06.561Z,5.93
2023-04-02T22:42:57.733Z,6.22
2023-04-02T22:45:30.028Z,4.07
2023-04-02T22:48:03.014Z,4.53
2023-04-02T22:50:35.609Z,3.28
2023-04-02T22:53:10.083Z,3.10
2023-04-02T22:55:42.457Z,7.65
2023-04-02T22:58:33.506Z,10.80
2023-04-02T23:01:26.357Z,12.35
2023-04-02T23:04:18.014Z,13.15
2023-04-02T23:06:50.834Z,8.85
2023-04-02T23:09:23.172Z,8.95
2023-04-02T23:11:55.650Z,11.80
2023-04-02T23:14:43.178Z,8.25
2023-04-02T23:17:15.548Z,7.88
2023-04-02T23:20:08.261Z,11.63
2023-04-02T23:22:59.223Z,11.30
2023-04-02T23:25:49.800Z,11.23
2023-04-02T23:28:22.604Z,9.13
2023-04-02T23:30:55.290Z,6.43
2023-04-02T23:33:27.599Z,9.10
2023-04-02T23:36:05.570Z,8.38
2023-04-02T23:38:37.950Z,11.25
2023-04-02T23:41:13.696Z,7.90
2023-04-02T23:43:46.006Z,5.90
2023-04-02T23:46:18.738Z,7.68
2023-04-02T23:48:51.455Z,6.35
2023-04-02T23:51:25.320Z,10.80
2023-04-02T23:53:57.838Z,8.68
2023-04-02T23:56:30.130Z,8.25
2023-04-02T23:59:02.551Z,7.40
